Wollongong, Australia
Current Conditions -  °F | °C
As of 6:30 PM on Friday 24 Oct 2014 (Local Time) from YSSY Reporting Station
Broken Clouds Broken Clouds  
Wind Chill: 73°   Ceiling: 25000
Heat Index: 73°   Visibility: 6mi
Dew Point: 63°   Wind: 22mph
Humidity: 69%   Direction: 30°NNE
Pressure: 29.88"   Gusts: 33mph
Location:  34.43°S, 150.9°E
Report Text: YSSY 240730Z 03019G29KT 9999 FEW040 BKN250 23/17 Q1012 NOSIG
Loading
Personal Weather Stations






























Interactive Weather Map
Tropical Storm Tracking
New forecast layout! Learn more

10-Day Weather Forecast

Advertisements
Track Severe Weather on mobile